• Join FlightAware (Why Join?)
  • Login
  • US Flag 
01:49AM EDT


 

Airport Tracker/Info


-or-


 

Live Flight TrackerFlight Track Log ✈ SWA387 ✈ 22-Jan-2014 ✈ KMDW - KRDU

Flight Track Log - Related Links

Times and Time Zones

All times are in EST time to prevent confusion due to time zone crossing. See the SWA387 flight status page for this flight to view local times or setup timezone preferences in your user account.

Time Position Orientation Groundspeed Altitude Reporting Facility
EST Latitude Longitude Course Direction KTS MPH feet Rate Location/Type
09:51PM 41.7833 -87.8000 167° South 177 204 2,700  Level Chicago TRACON
09:51PM 41.7333 -87.8333 206° Southwest 224 258 6,600 3,660 Climbing Chicago TRACON
09:53PM 41.6536 -87.7786 153° Southeast 299 344 11,200 3,060 Climbing Chicago Center
09:54PM 41.5644 -87.6989 146° Southeast 369 425 14,000 2,940 Climbing Chicago Center
09:55PM 41.4683 -87.6111 146° Southeast 413 475 17,300 3,000 Climbing Chicago Center
09:56PM 41.4243 -87.1232 167° South  Level Estimated
09:56PM 41.3525 -87.5592 161° South 445 512 20,200  Level Chicago Center
09:57PM 41.2169 -87.5336 172° South 447 514 23,100 2,700 Climbing Chicago Center
09:58PM 41.0869 -87.4708 160° South 493 567 25,700 2,220 Climbing Chicago Center
09:59PM 40.9425 -87.3939 158° South 515 593 27,700 2,040 Climbing Chicago Center
10:00PM 40.8047 -87.3214 158° South 533 613 30,000 2,220 Climbing Chicago Center
10:01PM 40.6578 -87.2447 158° South 537 618 32,300 2,400 Climbing Chicago Center
10:02PM 40.5225 -87.1756 159° South 529 609 34,900 1,980 Climbing Chicago Center
10:03PM 40.3889 -87.1069 159° South 519 597 36,400 1,560 Climbing Chicago Center
10:04PM 40.2553 -87.0386 159° South 519 597 38,200 1,620 Climbing Chicago Center
10:05PM 40.1436 -86.9164 140° Southeast 538 619 39,800 1,620 Climbing Chicago Center
10:06PM 40.0969 -86.8156 121° Southeast 536 617 40,700 780 Climbing Indianapolis Center
10:07PM 40.0339 -86.6394 115° Southeast 538 619 41,000 120 Climbing Indianapolis Center
10:08PM 39.9678 -86.4628 116° Southeast 540 621 41,000  Level Indianapolis Center
10:09PM 39.9006 -86.2853 116° Southeast 540 621 41,000  Level Indianapolis Center
10:10PM 39.8347 -86.1061 116° Southeast 537 618 41,000  Level Indianapolis Center
10:11PM 39.7692 -85.9286 116° Southeast 538 619 41,000  Level Indianapolis Center
10:12PM 39.7036 -85.7536 116° Southeast 538 619 41,000  Level Indianapolis Center
10:13PM 39.6369 -85.5786 116° Southeast 542 624 41,000  Level Indianapolis Center
10:14PM 39.5708 -85.4031 116° Southeast 542 624 41,000  Level Indianapolis Center
10:15PM 39.5047 -85.2292 116° Southeast 542 624 41,000  Level Indianapolis Center
10:16PM 39.4369 -85.0539 117° Southeast 543 625 41,000  Level Indianapolis Center
10:17PM 39.3617 -84.8639 117° Southeast 544 626 41,000  Level Indianapolis Center
10:18PM 39.2950 -84.6914 116° Southeast 542 624 41,000  Level Indianapolis Center
10:19PM 39.2267 -84.5189 117° Southeast 541 623 41,000  Level Indianapolis Center
10:20PM 39.1606 -84.3483 117° Southeast 538 619 41,000  Level Indianapolis Center
10:21PM 39.0922 -84.1764 117° Southeast 542 624 41,000  Level Indianapolis Center
10:22PM 39.0222 -84.0044 118° Southeast 545 627 41,000  Level Indianapolis Center
10:23PM 38.9536 -83.8317 117° Southeast 546 628 41,000  Level Indianapolis Center
10:24PM 38.8836 -83.6586 117° Southeast 550 633 41,000  Level Indianapolis Center
10:25PM 38.8006 -83.4514 117° Southeast 549 632 41,000  Level Indianapolis Center
10:26PM 38.7311 -83.2819 118° Southeast 543 625 41,000  Level Indianapolis Center
10:27PM 38.6675 -83.1283 118° Southeast 542 624 41,000  Level Indianapolis Center
10:28PM 38.5936 -82.9489 118° Southeast 541 623 41,000  Level Indianapolis Center
10:29PM 38.5225 -82.7772 118° Southeast 544 626 41,000  Level Indianapolis Center
10:30PM 38.4511 -82.6072 118° Southeast 542 624 41,000  Level Indianapolis Center
10:31PM 38.3700 -82.4150 118° Southeast 544 626 41,000  Level Indianapolis Center
10:32PM 38.2972 -82.2439 118° Southeast 549 632 41,000  Level Indianapolis Center
10:33PM 38.2281 -82.0786 118° Southeast 536 617 41,000  Level Indianapolis Center
10:34PM 38.1550 -81.9092 119° Southeast 545 627 41,000  Level Indianapolis Center
10:35PM 38.0817 -81.7411 119° Southeast 547 629 41,000  Level Indianapolis Center
10:36PM 38.0103 -81.5728 118° Southeast 546 628 41,000 -360 Level Indianapolis Center
10:37PM 37.9333 -81.3989 119° Southeast 544 626 40,300 -1,680 Descending Indianapolis Center
10:38PM 37.8636 -81.2389 119° Southeast 544 626 37,600 -2,880 Descending Indianapolis Center
10:39PM 37.7903 -81.0728 119° Southeast 541 623 34,500 -3,300 Descending Indianapolis Center
10:40PM 37.7172 -80.9019 118° Southeast 556 640 31,000 -2,760 Descending Indianapolis Center
10:41PM 37.6239 -80.6953 120° Southeast 574 661 28,900 -1,620 Descending Indianapolis Center
10:42PM 37.5786 -80.5997 121° Southeast 571 657 28,300 -960 Descending Washington Center
10:43PM 37.5003 -80.4244 119° Southeast 571 657 27,300 -1,020 Descending Washington Center
10:44PM 37.4147 -80.2647 124° Southeast 571 657 26,300 -1,020 Descending Washington Center
10:45PM 37.3247 -80.1103 126° Southeast 560 644 25,300 -1,140 Descending Washington Center
10:46PM 37.2264 -79.9453 127° Southeast 547 629 24,100 -1,140 Descending Washington Center
10:47PM 37.1381 -79.7969 127° Southeast 542 624 23,100 -1,020 Descending Washington Center
10:48PM 37.0467 -79.6619 130° Southeast 536 617 22,100 -1,020 Descending Washington Center
10:49PM 36.9519 -79.5581 139° Southeast 511 588 21,100 -960 Descending Washington Center
10:50PM 36.8514 -79.4439 138° Southeast 500 575 20,200 -960 Descending Washington Center
10:51PM 36.7528 -79.3300 137° Southeast 490 564 19,200 -1,020 Descending Washington Center
10:52PM 36.6561 -79.2219 138° Southeast 490 564 18,200 -1,080 Descending Washington Center
10:52PM 36.5894 -79.1514 140° Southeast 469 540 17,500 -1,620 Descending Washington Center
10:53PM 36.5772 -79.1328 129° Southeast 468 539 17,100 -2,640 Descending Washington Center
10:53PM 36.5511 -79.1058 140° Southeast 478 550 16,500 -2,760 Descending Washington Center
10:54PM 36.4822 -79.0303 139° Southeast 455 524 14,300 -2,820 Descending Washington Center
10:54PM 36.4581 -79.0033 138° Southeast 462 532 13,700 -1,680 Descending Washington Center
10:55PM 36.3883 -78.9567 152° Southeast 400 460 12,600 -1,380 Descending Washington Center
10:55PM 36.3592 -78.9553 178° South 384 442 12,300 -1,140 Descending Washington Center
10:56PM 36.2883 -78.9547 180° South 338 389 11,500 -1,080 Descending Washington Center
10:56PM 36.2717 -78.9514 171° South 352 405 11,300 -1,200 Descending Washington Center
10:57PM 36.1717 -78.9447 177° South 332 382 10,000 -1,500 Descending Washington Center
10:58PM 36.1133 -78.9472 182° South 285 328 8,700 -1,680 Descending Washington Center
10:58PM 36.0925 -78.9439 173° South 307 353 8,300 -1,920 Descending Washington Center
10:59PM 36.0300 -78.9386 176° South 272 313 6,800 -1,800 Descending Washington Center
10:59PM 36.0156 -78.9328 162° South 289 333 6,500 -1,980 Descending Washington Center
11:00PM 35.9575 -78.9228 172° South 259 298 4,800 -1,980 Descending Washington Center
11:00PM 35.9450 -78.9197 169° South 277 319 4,600 -2,220 Descending Washington Center
11:01PM 35.8889 -78.9097 172° South 240 276 2,600 -2,100 Descending Washington Center
11:01PM 35.8825 -78.9119 196° South 259 298 2,500 -540 Descending Washington Center
11:02PM 35.8414 -78.8897 156° South 229 264 2,000 -660 Descending Washington Center
11:03PM 35.8303 -78.8456 107° East 145 167 1,400 -780 Descending Washington Center
11:04PM 35.8561 -78.8108 47° Northeast 136 157 600 -780 Descending Washington Center
11:06PM 35.8667 -78.7833 90° East  Level FlightAware Approximate